This is the latest recevied weather packets stored in our database for station/object N9CQS-15. If no packets are shown the sender has not sent any weather packets the latest 1 day(s).
| Time | Temp. | Humidity | Pressure | Rain* | Wind** | Luminosity | Snow |
|---|---|---|---|---|---|---|---|
| 1778098142 | 15° C | 47% | 1015.3 hPa | 0 mm | - | - | - |
| 1778096342 | 14.44° C | 49% | 1015.5 hPa | 0 mm | - | - | - |
| 1778095142 | 15.56° C | 45% | 1015.3 hPa | 0 mm | - | - | - |
| 1778093342 | 15° C | 46% | 1015.7 hPa | 0 mm | - | - | - |
| 1778091542 | 14.44° C | 51% | 1015.6 hPa | 0 mm | - | - | - |
| 1778090342 | 12.78° C | 59% | 1016 hPa | 0 mm | - | - | - |
| 1778088542 | 12.22° C | 62% | 1016.2 hPa | 0 mm | - | - | - |
| 1778084942 | 11.67° C | 64% | 1015.8 hPa | 0 mm | - | - | - |
| 1778084342 | 11.11° C | 64% | 1015.6 hPa | 0 mm | - | - | - |
| 1778083142 | 11.11° C | 65% | 1015.4 hPa | 0 mm | - | - | - |
| 1778081942 | 11.11° C | 64% | 1015.3 hPa | 0 mm | - | - | - |
| 1778080742 | 11.67° C | 64% | 1014.8 hPa | 0 mm | - | - | - |
| 1778078342 | 10.56° C | 67% | 1015.1 hPa | 0 mm | - | - | - |
| 1778074742 | 8.89° C | 72% | 1015.5 hPa | 0 mm | - | - | - |
| 1778069942 | 7.78° C | 93% | 1013.8 hPa | 0 mm | - | - | - |
| 1778066942 | 6.67° C | 93% | 1013.2 hPa | 0 mm | - | - | - |
| 1778063342 | 6.67° C | 91% | 1012.9 hPa | 0 mm | - | - | - |
| 1778062742 | 6.67° C | 91% | 1012.5 hPa | 0 mm | - | - | - |
| 1778059742 | 6.67° C | 92% | 1012.4 hPa | 0 mm | - | - | - |
| 1778059142 | 6.67° C | 93% | 1012.4 hPa | 0 mm | - | - | - |
| 1778058542 | 7.22° C | 93% | 1012.4 hPa | 0 mm | - | - | - |
| 1778053742 | 7.78° C | 90% | 1012 hPa | 0 mm | - | - | - |
| 1778053142 | 7.78° C | 91% | 1011.8 hPa | 0 mm | - | - | - |
| 1778052542 | 7.78° C | 91% | 1011.8 hPa | - | - | - | - |
| 1778050142 | 7.22° C | 88% | 1011.8 hPa | - | - | - | - |
* Rain latest hour (hover to see other rain measurements)
** Current wind speed in m/s (hover to see current wind gust speed)